Time;durP1;ratioP1;P1;durP2;ratioP2;P2;SDS_P1;SDS_P2;PMS_P1;PMS_P2;Temp;Humidity;BMP_temperature;BMP_pressure;BME280_temperature;BME280_humidity;BME280_pressure;Samples;Min_cycle;Max_cycle;Signal;HPM_P1;HPM_P2
2023/07/12 00:01:18;;;;;;;2.58;1.20;;;21.20;99.90;;;;;;5011143;28;20410;-71
2023/07/12 00:03:44;;;;;;;2.70;1.25;;;21.20;99.90;;;;;;5009469;28;20038;-72
2023/07/12 00:06:20;;;;;;;1.95;1.30;;;21.20;99.90;;;;;;5011973;28;20526;-73
2023/07/12 00:08:47;;;;;;;2.50;1.48;;;21.20;99.90;;;;;;4994498;28;20501;-72
2023/07/12 00:11:23;;;;;;;2.67;1.30;;;21.30;99.90;;;;;;4994385;28;20030;-73
2023/07/12 00:13:52;;;;;;;4.30;0.88;;;21.20;99.90;;;;;;4993474;28;20050;-72
2023/07/12 00:16:29;;;;;;;3.83;1.45;;;21.20;99.90;;;;;;5011810;28;20033;-72
2023/07/12 00:18:56;;;;;;;4.20;0.90;;;21.20;99.90;;;;;;5009765;28;20033;-71
2023/07/12 00:21:26;;;;;;;2.53;1.30;;;21.20;99.90;;;;;;4994307;28;20037;-71
2023/07/12 00:23:58;;;;;;;1.95;1.10;;;21.20;99.90;;;;;;4993400;28;20078;-70
2023/07/12 00:26:34;;;;;;;4.50;1.10;;;21.20;99.90;;;;;;4987091;28;20143;-71
2023/07/12 00:29:04;;;;;;;2.65;1.40;;;21.20;99.90;;;;;;4992109;28;20030;-71
2023/07/12 00:31:31;;;;;;;3.10;1.35;;;21.30;99.90;;;;;;4994250;28;20049;-71
2023/07/12 00:33:57;;;;;;;2.05;1.05;;;21.30;99.90;;;;;;5009137;28;20108;-71
2023/07/12 00:36:29;;;;;;;3.13;1.85;;;21.30;99.90;;;;;;5011275;28;20062;-72
2023/07/12 00:38:57;;;;;;;3.35;1.17;;;21.30;99.90;;;;;;5009265;28;20030;-72
2023/07/12 00:41:54;;;;;;;1.95;1.20;;;21.30;99.90;;;;;;4993804;28;20033;-72
2023/07/12 00:44:36;;;;;;;2.67;1.50;;;21.30;99.90;;;;;;5008963;28;20037;-72
2023/07/12 00:47:01;;;;;;;5.65;1.17;;;21.20;99.90;;;;;;5011419;28;20034;-73
2023/07/12 00:49:27;;;;;;;2.35;1.52;;;21.20;99.90;;;;;;5009053;28;20080;-54
2023/07/12 00:52:13;;;;;;;2.53;1.27;;;21.20;99.90;;;;;;4993660;28;20079;-56
2023/07/12 00:55:00;;;;;;;4.32;1.40;;;21.20;99.90;;;;;;5008762;28;20486;-57
2023/07/12 00:57:29;;;;;;;3.83;1.55;;;21.20;99.90;;;;;;4990607;28;20037;-57
2023/07/12 01:00:04;;;;;;;1.65;1.00;;;21.20;99.90;;;;;;4990744;28;20040;-53
2023/07/12 01:02:30;;;;;;;2.30;1.35;;;21.20;99.90;;;;;;4993866;28;20076;-54
2023/07/12 01:04:59;;;;;;;2.25;1.15;;;21.30;99.90;;;;;;4990254;28;20042;-57
2023/07/12 01:07:29;;;;;;;3.53;1.50;;;21.30;99.90;;;;;;4984672;28;20085;-57
2023/07/12 01:09:55;;;;;;;4.03;1.23;;;21.30;99.90;;;;;;4986118;28;20490;-57
2023/07/12 01:12:21;;;;;;;3.22;1.15;;;21.40;99.90;;;;;;4975495;28;20092;-53
2023/07/12 01:14:47;;;;;;;3.92;1.33;;;21.30;99.90;;;;;;5004035;28;20058;-56
2023/07/12 01:17:13;;;;;;;3.47;1.25;;;21.30;99.90;;;;;;4992525;28;20592;-57
2023/07/12 01:19:40;;;;;;;2.67;1.13;;;21.40;99.90;;;;;;4992562;28;20117;-58
2023/07/12 01:22:07;;;;;;;4.50;1.63;;;21.30;99.90;;;;;;4993083;28;20061;-56
2023/07/12 01:24:33;;;;;;;2.60;1.13;;;21.40;99.90;;;;;;5008317;28;20026;-57
2023/07/12 01:27:12;;;;;;;1.40;0.88;;;21.30;99.90;;;;;;5010519;28;20041;-53
2023/07/12 01:29:39;;;;;;;1.95;1.10;;;21.30;99.90;;;;;;5008126;28;20082;-54
2023/07/12 01:32:05;;;;;;;3.85;1.10;;;21.20;99.90;;;;;;5010505;28;20516;-56
2023/07/12 01:34:31;;;;;;;1.98;1.00;;;21.20;99.90;;;;;;4992515;28;20040;-55
2023/07/12 01:36:57;;;;;;;3.05;1.17;;;21.20;99.90;;;;;;5010390;28;20034;-57
2023/07/12 01:39:24;;;;;;;1.88;0.98;;;21.20;99.90;;;;;;5030950;23;20075;-61
2023/07/12 01:41:50;;;;;;;2.15;1.23;;;21.20;99.90;;;;;;5045844;28;20397;-61
2023/07/12 01:44:16;;;;;;;3.17;1.40;;;21.20;99.90;;;;;;5049046;28;20025;-61
2023/07/12 01:46:42;;;;;;;3.53;1.63;;;21.10;99.90;;;;;;5039363;28;20040;-61
2023/07/12 01:49:07;;;;;;;3.78;1.38;;;21.10;99.90;;;;;;5046332;28;20073;-62
2023/07/12 01:51:33;;;;;;;4.00;0.98;;;21.00;99.90;;;;;;5029945;28;20029;-62
2023/07/12 01:53:59;;;;;;;3.33;1.27;;;21.10;99.90;;;;;;5028990;28;20103;-62
2023/07/12 01:56:25;;;;;;;3.22;1.30;;;21.10;99.90;;;;;;5030045;28;20017;-62
2023/07/12 01:58:50;;;;;;;2.08;1.50;;;21.10;99.90;;;;;;5029596;28;20108;-62
2023/07/12 02:01:16;;;;;;;5.40;1.23;;;21.10;99.90;;;;;;5029930;28;20108;-61
2023/07/12 02:03:42;;;;;;;3.83;1.42;;;21.00;99.90;;;;;;5029421;28;20040;-61
2023/07/12 02:06:08;;;;;;;1.75;1.02;;;21.00;99.90;;;;;;5028937;28;20061;-61
2023/07/12 02:08:33;;;;;;;6.60;1.33;;;21.00;99.90;;;;;;5012015;28;20037;-61
2023/07/12 02:10:59;;;;;;;4.47;1.10;;;21.00;99.90;;;;;;5029205;28;20025;-62
2023/07/12 02:13:25;;;;;;;4.20;1.65;;;20.90;99.90;;;;;;5013526;28;20065;-60
2023/07/12 02:15:51;;;;;;;2.50;1.10;;;20.90;99.90;;;;;;5029107;28;20029;-60
2023/07/12 02:18:17;;;;;;;3.80;1.30;;;20.90;99.90;;;;;;5029611;28;20080;-60
2023/07/12 02:20:44;;;;;;;2.72;1.42;;;20.90;99.90;;;;;;5029125;28;20537;-61
2023/07/12 02:23:09;;;;;;;1.92;0.73;;;21.00;99.90;;;;;;5029467;28;20045;-60
2023/07/12 02:25:35;;;;;;;4.15;0.82;;;20.90;99.90;;;;;;5030607;28;20034;-60
2023/07/12 02:28:01;;;;;;;5.80;1.40;;;20.90;99.90;;;;;;5032119;28;20051;-60
2023/07/12 02:30:28;;;;;;;1.75;1.10;;;20.90;99.90;;;;;;5022568;28;20068;-60
2023/07/12 02:32:55;;;;;;;1.88;1.20;;;20.90;99.90;;;;;;5032962;28;20065;-60
2023/07/12 02:35:27;;;;;;;2.22;0.98;;;20.90;99.90;;;;;;5032521;28;20021;-61
2023/07/12 02:37:54;;;;;;;2.70;0.90;;;20.90;99.90;;;;;;5033242;28;20030;-61
2023/07/12 02:40:24;;;;;;;6.10;1.65;;;20.90;99.90;;;;;;5022538;28;20052;-61
2023/07/12 02:42:51;;;;;;;5.40;2.17;;;20.80;99.90;;;;;;5032813;28;20083;-61
2023/07/12 02:45:17;;;;;;;5.40;1.17;;;20.90;99.90;;;;;;5032367;28;20033;-60
2023/07/12 02:47:42;;;;;;;3.35;1.35;;;20.80;99.90;;;;;;5033037;28;20037;-61
2023/07/12 02:50:09;;;;;;;2.42;1.10;;;20.90;99.90;;;;;;5032150;28;20086;-61
2023/07/12 02:52:35;;;;;;;5.70;1.20;;;20.80;99.90;;;;;;5017291;28;20034;-61
2023/07/12 02:55:00;;;;;;;2.03;1.10;;;20.80;99.90;;;;;;5021633;28;20136;-61
2023/07/12 02:57:27;;;;;;;4.18;1.50;;;20.80;99.90;;;;;;5032751;28;20086;-61
2023/07/12 02:59:53;;;;;;;2.58;1.60;;;20.80;99.90;;;;;;5031784;28;20055;-61
2023/07/12 03:02:19;;;;;;;1.45;0.95;;;20.70;99.90;;;;;;5032282;28;20130;-61
2023/07/12 03:04:45;;;;;;;3.30;1.10;;;20.80;99.90;;;;;;5032209;28;20374;-60
2023/07/12 03:07:11;;;;;;;2.85;0.93;;;20.80;99.90;;;;;;5039442;28;20473;-62
2023/07/12 03:09:38;;;;;;;4.72;1.50;;;20.80;99.90;;;;;;5031806;28;20104;-62
2023/07/12 03:12:05;;;;;;;2.35;1.10;;;20.90;99.90;;;;;;5039396;28;20108;-62
2023/07/12 03:14:31;;;;;;;1.50;0.90;;;20.90;99.90;;;;;;5031587;28;20025;-62
2023/07/12 03:16:57;;;;;;;4.00;1.63;;;20.90;99.90;;;;;;5032419;28;20025;-62
2023/07/12 03:19:23;;;;;;;3.95;1.17;;;20.80;99.90;;;;;;5031864;28;20037;-62
2023/07/12 03:21:49;;;;;;;2.70;1.42;;;20.90;99.90;;;;;;5039150;28;20412;-62
2023/07/12 03:24:15;;;;;;;4.40;1.33;;;20.90;99.90;;;;;;5031540;28;20117;-62
2023/07/12 03:26:41;;;;;;;2.83;1.73;;;20.90;99.90;;;;;;5032367;28;20112;-62
2023/07/12 03:29:07;;;;;;;6.70;1.33;;;20.90;99.90;;;;;;5028767;28;20025;-62
2023/07/12 03:31:33;;;;;;;5.40;1.60;;;20.80;99.90;;;;;;5016870;28;20409;-62
2023/07/12 03:33:59;;;;;;;2.50;1.17;;;20.80;99.90;;;;;;5031042;28;20037;-61
2023/07/12 03:36:31;;;;;;;1.52;0.90;;;20.80;99.90;;;;;;5021389;28;20044;-61
2023/07/12 03:38:58;;;;;;;5.57;1.40;;;20.70;99.90;;;;;;5027051;28;20025;-61
2023/07/12 03:41:25;;;;;;;3.45;1.15;;;20.70;99.90;;;;;;5032113;28;20029;-61
2023/07/12 03:43:51;;;;;;;3.85;1.05;;;20.70;99.90;;;;;;5031194;28;20108;-61
2023/07/12 03:46:17;;;;;;;2.47;1.20;;;20.80;99.90;;;;;;5014570;28;20597;-61
2023/07/12 03:48:44;;;;;;;6.63;1.70;;;20.70;99.90;;;;;;5003325;28;20030;-61
2023/07/12 03:51:12;;;;;;;3.65;1.80;;;20.70;99.90;;;;;;5006253;28;20038;-61
2023/07/12 03:53:38;;;;;;;2.65;1.45;;;20.70;99.90;;;;;;5002548;28;20504;-61
2023/07/12 03:56:04;;;;;;;4.70;1.67;;;20.70;99.90;;;;;;5005933;28;20042;-61
2023/07/12 03:58:36;;;;;;;1.65;1.15;;;20.60;99.90;;;;;;4998095;28;20045;-72
2023/07/12 04:01:06;;;;;;;2.58;1.10;;;20.60;99.90;;;;;;5006765;28;20034;-74
2023/07/12 04:03:33;;;;;;;1.83;1.10;;;20.60;99.90;;;;;;5012704;28;20132;-72
2023/07/12 04:05:59;;;;;;;3.90;1.77;;;20.60;99.90;;;;;;5010566;28;20339;-73
2023/07/12 04:08:24;;;;;;;3.05;1.48;;;20.60;99.90;;;;;;4993820;28;20033;-74
2023/07/12 04:10:55;;;;;;;6.00;1.80;;;20.60;99.90;;;;;;5004032;28;20448;-74
2023/07/12 04:13:23;;;;;;;4.07;1.48;;;20.70;99.90;;;;;;5006736;28;20427;-73
2023/07/12 04:15:54;;;;;;;3.15;1.30;;;20.80;99.90;;;;;;5008634;28;20042;-73
2023/07/12 04:18:22;;;;;;;3.60;2.17;;;20.80;99.90;;;;;;5016276;28;20036;-75
2023/07/12 04:20:48;;;;;;;5.88;1.67;;;20.70;99.90;;;;;;5012913;28;20493;-73
2023/07/12 04:23:14;;;;;;;3.10;1.52;;;20.80;99.90;;;;;;4994329;28;20466;-72
2023/07/12 04:25:40;;;;;;;3.10;1.50;;;20.80;99.90;;;;;;5017117;28;20124;-70
2023/07/12 04:28:06;;;;;;;6.25;1.60;;;20.80;99.90;;;;;;5011273;28;20057;-69
2023/07/12 04:30:32;;;;;;;3.30;1.92;;;20.70;99.90;;;;;;5010838;28;20077;-69
2023/07/12 04:32:58;;;;;;;6.80;2.10;;;20.70;99.90;;;;;;4993635;28;20095;-70
2023/07/12 04:35:24;;;;;;;5.07;2.05;;;20.80;99.90;;;;;;5009395;28;20041;-68
2023/07/12 04:37:51;;;;;;;8.27;2.58;;;20.80;99.90;;;;;;5011420;28;20514;-70
2023/07/12 04:40:18;;;;;;;8.57;1.92;;;20.80;99.90;;;;;;5009191;28;20548;-68
2023/07/12 04:42:45;;;;;;;4.47;1.95;;;20.90;99.90;;;;;;5010920;28;20053;-69
2023/07/12 04:45:13;;;;;;;7.60;1.67;;;20.90;99.90;;;;;;5008964;28;20493;-68
2023/07/12 04:47:40;;;;;;;4.85;2.05;;;20.90;99.90;;;;;;5009730;28;20108;-68
2023/07/12 04:50:07;;;;;;;13.27;2.05;;;21.00;99.90;;;;;;5008814;28;20505;-70
2023/07/12 04:52:34;;;;;;;6.03;2.88;;;21.10;99.90;;;;;;5009911;28;20033;-72
2023/07/12 04:55:03;;;;;;;7.03;2.35;;;21.10;99.90;;;;;;5013144;28;20401;-69
2023/07/12 04:57:30;;;;;;;5.50;2.10;;;21.20;99.90;;;;;;5010917;28;20036;-70
2023/07/12 04:59:57;;;;;;;5.57;2.25;;;21.30;99.90;;;;;;5011741;28;20033;-71
2023/07/12 05:02:22;;;;;;;10.32;2.10;;;21.40;99.90;;;;;;5013978;28;20291;-69
2023/07/12 05:04:48;;;;;;;3.83;1.80;;;21.40;99.90;;;;;;5012976;28;20490;-67
2023/07/12 05:07:14;;;;;;;3.58;1.70;;;21.50;99.90;;;;;;5025832;28;20109;-73
2023/07/12 05:09:40;;;;;;;4.43;1.85;;;21.60;99.90;;;;;;5009984;28;20037;-72
2023/07/12 05:12:07;;;;;;;7.05;2.05;;;21.70;99.90;;;;;;5010588;28;20385;-73
2023/07/12 05:14:33;;;;;;;3.13;1.50;;;21.70;99.90;;;;;;5009740;28;20121;-72
2023/07/12 05:16:59;;;;;;;3.72;2.33;;;21.70;99.90;;;;;;4992932;28;20108;-71
2023/07/12 05:19:24;;;;;;;7.45;1.75;;;21.70;99.90;;;;;;5009743;28;20544;-78
2023/07/12 05:21:50;;;;;;;9.07;2.00;;;21.60;99.90;;;;;;5026079;28;20025;-77
2023/07/12 05:24:16;;;;;;;5.95;2.30;;;21.60;99.90;;;;;;5010623;28;20040;-81
2023/07/12 05:26:42;;;;;;;4.22;1.95;;;21.70;99.90;;;;;;5025624;28;20508;-74
2023/07/12 05:29:12;;;;;;;6.28;2.65;;;21.80;99.90;;;;;;5009636;28;20164;-74
2023/07/12 05:31:37;;;;;;;12.60;2.20;;;21.80;99.90;;;;;;5025311;28;20029;-75
2023/07/12 05:34:03;;;;;;;4.65;1.92;;;21.90;99.90;;;;;;5009520;28;20030;-76
2023/07/12 05:36:29;;;;;;;12.25;2.17;;;21.90;99.90;;;;;;5010118;28;20072;-75
2023/07/12 05:38:56;;;;;;;4.13;2.45;;;21.90;99.90;;;;;;5008418;28;20026;-76
2023/07/12 05:41:22;;;;;;;5.47;2.10;;;22.10;99.90;;;;;;5025167;28;20057;-75
2023/07/12 05:43:47;;;;;;;3.58;1.85;;;22.00;99.90;;;;;;5010137;28;20060;-72
2023/07/12 05:46:13;;;;;;;4.97;2.28;;;22.10;99.90;;;;;;5010316;28;20030;-75
2023/07/12 05:48:39;;;;;;;9.73;2.63;;;22.10;99.90;;;;;;5010189;28;20041;-77
2023/07/12 05:51:07;;;;;;;5.55;2.00;;;22.20;99.90;;;;;;5009677;28;20030;-75
2023/07/12 05:53:34;;;;;;;3.58;2.20;;;22.20;99.90;;;;;;5010126;28;20033;-74
2023/07/12 05:56:01;;;;;;;8.35;2.72;;;22.20;99.90;;;;;;5009612;28;20044;-75
2023/07/12 05:58:27;;;;;;;7.63;2.17;;;22.30;99.90;;;;;;5009402;28;20022;-76
2023/07/12 06:01:01;;;;;;;5.22;1.92;;;22.40;99.90;;;;;;5018532;28;20050;-75
2023/07/12 06:03:29;;;;;;;8.82;2.38;;;22.60;99.90;;;;;;5011457;28;20040;-77
2023/07/12 06:05:56;;;;;;;4.38;1.63;;;22.60;99.90;;;;;;5013280;28;20748;-77
2023/07/12 06:08:25;;;;;;;6.65;2.50;;;22.70;99.90;;;;;;5014768;28;20030;-75
2023/07/12 06:10:50;;;;;;;3.67;1.90;;;22.60;99.90;;;;;;4995764;28;20025;-64
2023/07/12 06:13:16;;;;;;;4.50;2.05;;;22.60;99.90;;;;;;5013500;28;20371;-65
2023/07/12 06:15:42;;;;;;;8.30;2.53;;;22.60;99.90;;;;;;5013107;28;20393;-57
2023/07/12 06:18:08;;;;;;;6.20;2.38;;;22.70;99.90;;;;;;5014023;28;20029;-52
2023/07/12 06:20:35;;;;;;;7.30;2.20;;;22.80;99.90;;;;;;5013188;28;20045;-57
2023/07/12 06:23:01;;;;;;;4.65;2.50;;;22.80;99.90;;;;;;5011919;28;20053;-54
2023/07/12 06:25:26;;;;;;;4.78;1.85;;;22.90;99.90;;;;;;5019818;28;20489;-52
2023/07/12 06:27:52;;;;;;;8.23;1.85;;;22.90;99.90;;;;;;5014244;28;20026;-55
2023/07/12 06:30:18;;;;;;;13.43;2.63;;;23.10;99.90;;;;;;5013197;28;20030;-52
2023/07/12 06:32:45;;;;;;;8.43;1.77;;;23.00;99.90;;;;;;5012050;28;20017;-55
2023/07/12 06:35:10;;;;;;;6.18;2.40;;;23.00;99.90;;;;;;5020432;28;20497;-56
2023/07/12 06:37:36;;;;;;;7.97;2.15;;;23.10;99.90;;;;;;5013577;28;20040;-56
2023/07/12 06:40:02;;;;;;;6.70;2.05;;;22.90;99.90;;;;;;5012967;28;20084;-53
2023/07/12 06:42:28;;;;;;;4.78;2.45;;;23.10;99.90;;;;;;5028420;28;20030;-53
2023/07/12 06:44:54;;;;;;;6.38;2.22;;;23.20;99.90;;;;;;5012949;28;20033;-52
2023/07/12 06:47:20;;;;;;;5.10;2.72;;;23.30;99.90;;;;;;5012114;28;20026;-75
2023/07/12 06:49:46;;;;;;;4.93;2.50;;;23.40;99.90;;;;;;5012721;28;20474;-73
2023/07/12 06:52:13;;;;;;;3.65;2.35;;;23.30;99.90;;;;;;5013563;28;20091;-73
2023/07/12 06:54:39;;;;;;;5.63;2.42;;;23.20;99.90;;;;;;5011003;28;20482;-73
2023/07/12 06:57:05;;;;;;;4.15;2.15;;;23.30;99.90;;;;;;5013136;28;20034;-75
2023/07/12 06:59:31;;;;;;;4.10;2.17;;;23.40;99.90;;;;;;5012402;28;20083;-71
2023/07/12 07:01:57;;;;;;;4.43;2.33;;;23.30;99.90;;;;;;5011695;28;20108;-71
2023/07/12 07:04:23;;;;;;;6.75;2.50;;;23.40;99.90;;;;;;5010920;28;20036;-71
2023/07/12 07:06:49;;;;;;;5.28;2.90;;;23.60;99.90;;;;;;5027908;28;20551;-69
2023/07/12 07:09:15;;;;;;;9.77;3.38;;;23.60;99.90;;;;;;5010614;28;20026;-70
2023/07/12 07:11:42;;;;;;;11.57;3.78;;;23.70;99.90;;;;;;5011460;28;20385;-70
2023/07/12 07:14:08;;;;;;;11.90;4.63;;;23.70;99.90;;;;;;5012188;28;20072;-69
2023/07/12 07:16:34;;;;;;;11.27;4.00;;;23.60;99.90;;;;;;5028158;28;20061;-70
2023/07/12 07:18:59;;;;;;;5.78;3.42;;;23.70;99.90;;;;;;5012105;28;20029;-70
2023/07/12 07:21:25;;;;;;;7.00;3.60;;;23.60;99.90;;;;;;5012721;28;20096;-70
2023/07/12 07:23:52;;;;;;;10.88;3.47;;;23.60;99.90;;;;;;5012054;28;20453;-69
2023/07/12 07:26:18;;;;;;;7.90;4.03;;;23.70;99.90;;;;;;5011444;28;20026;-69
2023/07/12 07:28:44;;;;;;;10.50;4.38;;;23.80;99.90;;;;;;4999621;28;20080;-70
2023/07/12 07:31:10;;;;;;;7.15;4.07;;;23.90;99.90;;;;;;5012025;28;20066;-70
2023/07/12 07:33:39;;;;;;;5.72;3.78;;;24.10;99.90;;;;;;5010802;28;20449;-71
2023/07/12 07:36:13;;;;;;;6.50;3.45;;;24.20;99.90;;;;;;5007583;28;20034;-54
2023/07/12 07:38:39;;;;;;;6.55;3.35;;;24.20;99.90;;;;;;5011469;28;20038;-54
2023/07/12 07:41:09;;;;;;;5.80;3.13;;;24.30;99.90;;;;;;5022855;22;20053;-54
2023/07/12 07:43:36;;;;;;;7.80;3.53;;;24.30;99.90;;;;;;5015533;28;20028;-55
2023/07/12 07:46:03;;;;;;;6.88;4.10;;;24.40;99.90;;;;;;4999923;28;20070;-54
2023/07/12 07:48:29;;;;;;;10.82;3.58;;;24.40;99.90;;;;;;5001855;28;20714;-77
2023/07/12 07:50:55;;;;;;;10.75;4.57;;;24.50;99.90;;;;;;5006909;28;20497;-76
2023/07/12 07:53:21;;;;;;;8.05;3.30;;;24.60;99.90;;;;;;5011763;28;20077;-76
2023/07/12 07:55:48;;;;;;;9.02;3.78;;;24.50;99.90;;;;;;5021814;28;20030;-76
2023/07/12 07:58:14;;;;;;;5.90;3.40;;;24.50;99.90;;;;;;5011423;28;20512;-76
2023/07/12 08:00:40;;;;;;;7.05;3.30;;;24.70;99.90;;;;;;5007951;28;20058;-76
2023/07/12 08:03:07;;;;;;;7.97;3.90;;;24.60;99.90;;;;;;5010311;28;20057;-76
2023/07/12 08:05:33;;;;;;;11.60;3.53;;;24.70;99.90;;;;;;5024421;28;20022;-76
2023/07/12 08:07:59;;;;;;;5.38;3.25;;;24.80;99.90;;;;;;5010282;28;20030;-76
2023/07/12 08:10:26;;;;;;;4.97;3.20;;;24.90;99.90;;;;;;5008090;28;20026;-76
2023/07/12 08:12:55;;;;;;;7.53;3.13;;;25.00;99.90;;;;;;5010365;28;20025;-76
2023/07/12 08:15:21;;;;;;;7.22;3.90;;;24.70;99.90;;;;;;4991037;28;20026;-76
2023/07/12 08:17:47;;;;;;;9.25;3.22;;;24.90;99.90;;;;;;5006394;28;20034;-76
2023/07/12 08:20:13;;;;;;;4.70;3.30;;;24.90;99.90;;;;;;5010842;28;20061;-77
2023/07/12 08:22:39;;;;;;;7.57;3.30;;;25.10;99.90;;;;;;4993160;28;20025;-76
2023/07/12 08:25:06;;;;;;;6.03;3.13;;;25.20;99.90;;;;;;5010336;28;20454;-76
2023/07/12 08:27:32;;;;;;;6.80;3.47;;;25.40;99.90;;;;;;5004947;28;20049;-76
2023/07/12 08:29:59;;;;;;;5.30;3.00;;;25.30;99.90;;;;;;5011195;28;20653;-76
2023/07/12 08:32:29;;;;;;;6.30;3.22;;;25.20;99.90;;;;;;5004253;28;20474;-76
2023/07/12 08:34:56;;;;;;;6.90;3.35;;;25.20;99.90;;;;;;5010253;28;20090;-76
2023/07/12 08:37:23;;;;;;;5.00;3.15;;;25.10;99.90;;;;;;5004472;28;20508;-76
2023/07/12 08:39:50;;;;;;;7.40;2.80;;;25.10;99.90;;;;;;5011110;28;20413;-76
2023/07/12 08:42:26;;;;;;;5.15;3.15;;;25.40;99.90;;;;;;5004036;28;20117;-76
2023/07/12 08:44:54;;;;;;;4.05;2.53;;;25.40;99.90;;;;;;5011206;28;20042;-76
2023/07/12 08:47:30;;;;;;;6.00;2.53;;;25.10;99.90;;;;;;5003929;28;20088;-76
2023/07/12 08:49:56;;;;;;;7.93;3.53;;;25.40;99.90;;;;;;5010152;28;20481;-76
2023/07/12 08:52:30;;;;;;;6.85;3.05;;;25.60;99.90;;;;;;5003600;28;20233;-76
2023/07/12 08:54:59;;;;;;;4.63;2.60;;;25.60;99.90;;;;;;5009880;28;20072;-76
2023/07/12 08:57:28;;;;;;;12.75;3.00;;;25.50;99.90;;;;;;5004148;28;20033;-77
2023/07/12 09:00:27;;;;;;;3.92;2.40;;;25.60;99.90;;;;;;5010911;28;20033;-76
2023/07/12 09:02:53;;;;;;;6.85;2.95;;;25.70;99.90;;;;;;5006159;28;20037;-76
2023/07/12 09:05:24;;;;;;;4.68;2.28;;;25.90;99.90;;;;;;5008371;28;20030;-77
2023/07/12 09:08:08;;;;;;;5.00;3.17;;;26.10;99.90;;;;;;5009549;28;20045;-77
2023/07/12 09:10:57;;;;;;;4.05;2.15;;;26.20;99.90;;;;;;4991708;28;20034;-76
2023/07/12 09:13:37;;;;;;;5.55;2.58;;;26.10;99.90;;;;;;5003440;28;20818;-76
2023/07/12 09:16:04;;;;;;;5.63;2.67;;;25.80;99.90;;;;;;5005075;28;20604;-76
2023/07/12 09:18:37;;;;;;;4.82;2.72;;;25.80;99.90;;;;;;5010800;28;20014;-76
2023/07/12 09:21:26;;;;;;;4.30;2.13;;;25.70;99.90;;;;;;5003785;28;20042;-76
2023/07/12 09:23:59;;;;;;;4.88;2.50;;;25.60;99.90;;;;;;5009125;28;20026;-76
2023/07/12 09:26:30;;;;;;;5.57;2.20;;;25.70;99.90;;;;;;5005153;28;20441;-77
2023/07/12 09:29:05;;;;;;;4.28;2.70;;;25.80;99.90;;;;;;5010664;28;20042;-77
2023/07/12 09:31:35;;;;;;;7.28;2.70;;;25.70;99.90;;;;;;5003671;28;20072;-76
2023/07/12 09:34:06;;;;;;;;;;;25.90;99.90;;;;;;5008978;28;20482;-76
2023/07/12 09:36:39;;;;;;;4.43;2.50;;;26.00;99.90;;;;;;5003173;28;20000;-77
2023/07/12 09:39:06;;;;;;;5.70;2.63;;;26.00;99.90;;;;;;5010561;28;20445;-76
2023/07/12 09:41:31;;;;;;;6.10;3.00;;;26.20;99.90;;;;;;5003265;28;20026;-76
2023/07/12 09:44:00;;;;;;;7.78;2.20;;;26.20;99.90;;;;;;5008857;28;20029;-77
2023/07/12 09:46:45;;;;;;;4.65;2.83;;;26.10;99.90;;;;;;5003623;28;20460;-76
2023/07/12 09:49:51;;;;;;;6.15;2.67;;;26.10;99.90;;;;;;5009402;28;20022;-77
2023/07/12 09:52:27;;;;;;;5.00;2.30;;;26.20;99.90;;;;;;5007639;28;20034;-77
2023/07/12 09:55:04;;;;;;;7.47;2.65;;;26.00;99.90;;;;;;5004685;28;20046;-78
2023/07/12 09:58:13;;;;;;;5.45;2.58;;;26.30;99.90;;;;;;5003409;28;20030;-78
2023/07/12 10:01:03;;;;;;;5.22;2.50;;;26.60;99.90;;;;;;5007502;28;20072;-79
2023/07/12 10:03:38;;;;;;;4.25;2.50;;;26.60;99.90;;;;;;5007120;28;20129;-78
2023/07/12 10:06:40;;;;;;;7.38;2.33;;;26.40;99.90;;;;;;5010423;28;20064;-78
2023/07/12 10:09:31;;;;;;;4.80;2.03;;;26.60;99.90;;;;;;5007400;28;20449;-78
2023/07/12 10:12:23;;;;;;;3.67;2.10;;;26.80;99.90;;;;;;5005888;28;20037;-78
2023/07/12 10:14:52;;;;;;;3.97;2.35;;;26.80;99.90;;;;;;5010018;28;20046;-78
2023/07/12 10:17:39;;;;;;;5.07;2.30;;;26.60;99.90;;;;;;5007678;28;20026;-78
2023/07/12 10:20:06;;;;;;;3.72;2.25;;;26.60;99.90;;;;;;5025343;28;20080;-78
2023/07/12 10:22:40;;;;;;;6.00;2.80;;;26.70;99.90;;;;;;5005890;28;20022;-78
2023/07/12 10:25:27;;;;;;;5.05;2.40;;;26.60;99.90;;;;;;5009078;28;20030;-78
2023/07/12 10:28:43;;;;;;;2.45;1.67;;;26.70;99.90;;;;;;5006210;28;20065;-79
2023/07/12 10:31:51;;;;;;;2.88;1.65;;;27.00;99.90;;;;;;5001390;28;20124;-78
2023/07/12 10:34:45;;;;;;;3.08;1.70;;;27.20;98.20;;;;;;5009852;28;20395;-78
2023/07/12 10:37:37;;;;;;;2.92;1.67;;;27.30;98.20;;;;;;5006283;28;20040;-78
2023/07/12 10:40:06;;;;;;;2.92;1.63;;;27.20;97.80;;;;;;5009001;28;20044;-78
2023/07/12 10:43:05;;;;;;;3.80;1.60;;;26.90;97.60;;;;;;5003489;28;20113;-78
2023/07/12 10:45:37;;;;;;;3.00;1.70;;;26.80;96.80;;;;;;4993780;28;20056;-78
2023/07/12 10:48:05;;;;;;;2.75;1.80;;;26.90;97.40;;;;;;5007093;28;20476;-78
2023/07/12 10:50:48;;;;;;;4.70;1.85;;;26.90;97.50;;;;;;5012559;28;20022;-78
2023/07/12 10:53:24;;;;;;;3.60;1.90;;;26.90;95.70;;;;;;5010133;28;20022;-78
2023/07/12 10:56:33;;;;;;;3.50;1.90;;;27.10;95.80;;;;;;4996094;28;20038;-78
2023/07/12 10:59:32;;;;;;;4.30;1.92;;;27.10;95.70;;;;;;5011329;28;20045;-79
2023/07/12 11:02:04;;;;;;;2.97;1.88;;;27.00;96.30;;;;;;5010076;28;20041;-79
2023/07/12 11:04:29;;;;;;;4.07;2.03;;;27.30;96.40;;;;;;5006246;28;20057;-79
2023/07/12 11:07:01;;;;;;;3.42;1.45;;;27.80;96.00;;;;;;5009936;28;20068;-79
2023/07/12 11:09:49;;;;;;;3.35;1.67;;;27.90;93.90;;;;;;5012912;28;20021;-79
2023/07/12 11:12:39;;;;;;;3.67;1.42;;;28.10;94.40;;;;;;5011084;28;20056;-79
2023/07/12 11:15:26;;;;;;;3.15;1.40;;;28.00;95.20;;;;;;5011598;28;20109;-78
2023/07/12 11:18:31;;;;;;;3.15;1.20;;;28.50;94.50;;;;;;5011299;28;20565;-78
2023/07/12 11:21:24;;;;;;;5.43;1.10;;;28.40;92.20;;;;;;5025183;28;20105;-78
2023/07/12 11:23:49;;;;;;;6.00;1.73;;;28.30;93.30;;;;;;5011503;28;20034;-77
2023/07/12 11:26:30;;;;;;;4.00;1.42;;;28.30;93.10;;;;;;5012586;28;20030;-77
2023/07/12 11:29:22;;;;;;;3.35;1.40;;;28.40;93.20;;;;;;5010787;28;20034;-78
2023/07/12 11:31:59;;;;;;;2.90;1.20;;;28.60;92.80;;;;;;5009556;28;20033;-78
2023/07/12 11:34:26;;;;;;;8.52;1.58;;;28.60;92.60;;;;;;5011018;28;20036;-78
2023/07/12 11:36:59;;;;;;;3.95;1.10;;;28.50;93.20;;;;;;5010920;28;20028;-78
2023/07/12 11:39:27;;;;;;;5.45;1.55;;;28.70;92.40;;;;;;5004277;28;20097;-78
2023/07/12 11:42:01;;;;;;;1.88;1.13;;;28.70;91.50;;;;;;5009182;28;20034;-78
2023/07/12 11:44:27;;;;;;;3.38;1.10;;;28.70;91.00;;;;;;5010955;28;20490;-79
2023/07/12 11:46:54;;;;;;;2.67;0.98;;;28.40;90.90;;;;;;5010533;28;20045;-79
2023/07/12 11:49:28;;;;;;;1.42;0.70;;;28.40;90.90;;;;;;5011075;28;20038;-79
2023/07/12 11:52:03;;;;;;;5.30;1.08;;;28.30;89.90;;;;;;4974148;28;20049;-79
2023/07/12 11:54:38;;;;;;;2.33;1.08;;;28.30;90.20;;;;;;4929211;28;20747;-80
2023/07/12 11:57:12;;;;;;;1.98;0.90;;;28.10;90.20;;;;;;4937028;28;20044;-79
2023/07/12 11:59:41;;;;;;;1.90;1.00;;;28.20;89.20;;;;;;5010681;28;20041;-79
2023/07/12 12:02:25;;;;;;;2.38;1.20;;;28.30;86.30;;;;;;5009999;28;20037;-79
2023/07/12 12:04:59;;;;;;;2.10;1.10;;;28.20;91.10;;;;;;5012003;28;20057;-79
2023/07/12 12:07:38;;;;;;;1.83;1.10;;;28.00;90.60;;;;;;5008971;28;20129;-79
2023/07/12 12:10:05;;;;;;;2.65;1.10;;;28.00;91.40;;;;;;5010984;28;20045;-78
2023/07/12 12:12:32;;;;;;;3.75;0.90;;;28.20;90.80;;;;;;5008572;28;20061;-79
2023/07/12 12:15:00;;;;;;;1.95;1.15;;;28.50;92.00;;;;;;5010105;28;20034;-79
2023/07/12 12:17:35;;;;;;;2.80;0.95;;;28.60;91.60;;;;;;5004219;28;20109;-78
2023/07/12 12:20:20;;;;;;;3.65;1.00;;;28.70;90.60;;;;;;5008224;28;20030;-80
2023/07/12 12:23:20;;;;;;;10.48;1.50;;;29.00;90.20;;;;;;5008365;28;20026;-79
2023/07/12 12:25:52;;;;;;;1.33;0.70;;;28.80;86.60;;;;;;5007128;28;20034;-79
2023/07/12 12:28:31;;;;;;;2.45;0.73;;;28.60;88.10;;;;;;5009488;28;20036;-81
2023/07/12 12:31:19;;;;;;;2.85;0.93;;;28.70;88.10;;;;;;5010226;28;20034;-79
2023/07/12 12:34:16;;;;;;;1.65;0.85;;;28.60;86.00;;;;;;4991683;28;20025;-80
2023/07/12 12:37:04;;;;;;;2.47;0.70;;;28.40;86.50;;;;;;4989609;28;20053;-80
2023/07/12 12:39:30;;;;;;;2.08;0.85;;;28.60;86.00;;;;;;5011517;28;20030;-80
2023/07/12 12:42:23;;;;;;;1.75;0.70;;;28.90;85.80;;;;;;5007753;28;20030;-80
2023/07/12 12:44:51;;;;;;;5.03;1.17;;;28.90;83.10;;;;;;5011035;28;20100;-80
2023/07/12 12:47:20;;;;;;;1.50;0.70;;;28.80;84.00;;;;;;5009367;28;20026;-80
2023/07/12 12:49:47;;;;;;;1.30;0.55;;;28.80;85.60;;;;;;5009776;28;20034;-81
2023/07/12 12:52:35;;;;;;;2.15;0.90;;;28.90;83.80;;;;;;5007804;28;20026;-81
2023/07/12 12:55:05;;;;;;;1.30;0.50;;;28.80;83.10;;;;;;5009583;28;20030;-80
2023/07/12 12:57:33;;;;;;;1.10;0.60;;;28.90;83.40;;;;;;5007899;28;20030;-81
2023/07/12 13:00:01;;;;;;;2.88;1.00;;;29.50;83.70;;;;;;5009485;28;20038;-81
2023/07/12 13:02:27;;;;;;;1.13;0.40;;;30.00;80.30;;;;;;5007687;28;20049;-81
2023/07/12 13:04:53;;;;;;;1.75;0.60;;;29.70;79.10;;;;;;4993025;28;20046;-81